Time;durP1;ratioP1;P1;durP2;ratioP2;P2;SDS_P1;SDS_P2;PMS_P1;PMS_P2;Temp;Humidity;BMP_temperature;BMP_pressure;BME280_temperature;BME280_humidity;BME280_pressure;Samples;Min_cycle;Max_cycle;Signal;HPM_P1;HPM_P2
2020/12/13 00:00:06;;;;;;;83.43;48.20;;;;;;;;;;5031221;28;20999;-65
2020/12/13 00:02:33;;;;;;;72.33;48.47;;;;;;;;;;5031574;28;20448;-64
2020/12/13 00:05:00;;;;;;;77.27;46.10;;;;;;;;;;5031936;28;20811;-64
2020/12/13 00:07:26;;;;;;;70.47;45.80;;;;;;;;;;5032159;28;20457;-65
2020/12/13 00:09:54;;;;;;;82.70;46.77;;;;;;;;;;5032659;28;20440;-65
2020/12/13 00:12:20;;;;;;;78.23;44.43;;;;;;;;;;5032221;28;20492;-64
2020/12/13 00:14:47;;;;;;;71.20;44.90;;;;;;;;;;5031964;28;20471;-64
2020/12/13 00:17:14;;;;;;;72.67;45.53;;;;;;;;;;5032318;28;20475;-64
2020/12/13 00:19:40;;;;;;;74.23;42.83;;;;;;;;;;5031882;28;20519;-64
2020/12/13 00:22:07;;;;;;;73.47;46.30;;;;;;;;;;5032030;28;20458;-64
2020/12/13 00:24:34;;;;;;;75.83;44.90;;;;;;;;;;5031351;28;20455;-65
2020/12/13 00:27:01;;;;;;;72.13;45.80;;;;;;;;;;5032128;28;20467;-64
2020/12/13 00:29:28;;;;;;;68.10;40.67;;;;;;;;;;5031284;28;20484;-64
2020/12/13 00:31:54;;;;;;;66.07;42.93;;;;;;;;;;5031528;28;20974;-64
2020/12/13 00:34:21;;;;;;;79.93;45.87;;;;;;;;;;5030566;28;20464;-64
2020/12/13 00:36:50;;;;;;;77.07;43.97;;;;;;;;;;5031600;28;20464;-63
2020/12/13 00:39:17;;;;;;;70.57;45.07;;;;;;;;;;5031330;28;20484;-64
2020/12/13 00:41:48;;;;;;;64.73;42.30;;;;;;;;;;5031783;28;20463;-66
2020/12/13 00:44:16;;;;;;;76.90;44.17;;;;;;;;;;5031573;28;20453;-64
2020/12/13 00:46:43;;;;;;;71.33;43.57;;;;;;;;;;5031367;28;20475;-64
2020/12/13 00:49:09;;;;;;;73.07;41.50;;;;;;;;;;5030958;28;20473;-64
2020/12/13 00:51:36;;;;;;;62.20;40.43;;;;;;;;;;5031740;28;20457;-63
2020/12/13 00:54:03;;;;;;;76.53;41.97;;;;;;;;;;5030477;28;20453;-64
2020/12/13 00:56:30;;;;;;;76.37;43.53;;;;;;;;;;5031661;28;20820;-64
2020/12/13 00:58:57;;;;;;;73.33;44.80;;;;;;;;;;5030823;28;20488;-64
2020/12/13 01:01:24;;;;;;;75.07;42.93;;;;;;;;;;5031871;28;20471;-63
2020/12/13 01:03:51;;;;;;;71.83;41.23;;;;;;;;;;5031150;28;20464;-64
2020/12/13 01:06:22;;;;;;;76.10;42.20;;;;;;;;;;5031327;28;20943;-64
2020/12/13 01:08:48;;;;;;;68.53;40.67;;;;;;;;;;5031721;28;21005;-64
2020/12/13 01:11:15;;;;;;;72.33;41.87;;;;;;;;;;5031727;28;20518;-66
2020/12/13 01:13:42;;;;;;;64.30;41.43;;;;;;;;;;5030950;28;20556;-65
2020/12/13 01:16:09;;;;;;;76.03;42.40;;;;;;;;;;5035606;28;20808;-66
2020/12/13 01:18:36;;;;;;;70.30;44.50;;;;;;;;;;5035831;28;20862;-65
2020/12/13 01:21:04;;;;;;;69.17;42.50;;;;;;;;;;5035691;28;20453;-64
2020/12/13 01:23:31;;;;;;;67.27;41.10;;;;;;;;;;5035161;28;20460;-64
2020/12/13 01:25:57;;;;;;;72.90;40.43;;;;;;;;;;5035047;28;20448;-64
2020/12/13 01:28:24;;;;;;;72.60;42.50;;;;;;;;;;5035531;28;20476;-64
2020/12/13 01:30:51;;;;;;;71.57;43.80;;;;;;;;;;5036024;28;20440;-64
2020/12/13 01:33:17;;;;;;;67.20;40.73;;;;;;;;;;5035678;28;20453;-63
2020/12/13 01:35:45;;;;;;;56.83;36.90;;;;;;;;;;5034859;28;20456;-63
2020/12/13 01:38:11;;;;;;;71.23;41.53;;;;;;;;;;5035247;28;20552;-64
2020/12/13 01:40:38;;;;;;;65.10;40.17;;;;;;;;;;5034311;28;20460;-63
2020/12/13 01:43:05;;;;;;;71.57;40.87;;;;;;;;;;5036303;28;20746;-64
2020/12/13 01:45:31;;;;;;;62.73;39.70;;;;;;;;;;5037128;28;20459;-63
2020/12/13 01:47:58;;;;;;;73.00;42.90;;;;;;;;;;5038229;28;20468;-64
2020/12/13 01:50:37;;;;;;;65.60;40.40;;;;;;;;;;5036698;28;20448;-64
2020/12/13 01:53:14;;;;;;;66.70;40.23;;;;;;;;;;5038203;28;20479;-64
2020/12/13 01:55:41;;;;;;;71.73;42.07;;;;;;;;;;5032342;28;20444;-64
2020/12/13 01:58:10;;;;;;;64.77;41.97;;;;;;;;;;5040818;28;20472;-65
2020/12/13 02:00:37;;;;;;;67.17;40.23;;;;;;;;;;5045376;28;20453;-64
2020/12/13 02:03:04;;;;;;;67.20;38.50;;;;;;;;;;5035937;28;20453;-63
2020/12/13 02:05:31;;;;;;;68.27;40.80;;;;;;;;;;5034374;28;20479;-64
2020/12/13 02:07:59;;;;;;;60.37;37.40;;;;;;;;;;5034588;28;20476;-63
2020/12/13 02:10:27;;;;;;;62.53;41.00;;;;;;;;;;5033556;28;20449;-63
2020/12/13 02:12:54;;;;;;;62.97;39.77;;;;;;;;;;5034145;28;20445;-62
2020/12/13 02:15:20;;;;;;;60.53;39.03;;;;;;;;;;5033756;28;20463;-63
2020/12/13 02:17:47;;;;;;;60.70;39.20;;;;;;;;;;5034406;28;20472;-63
2020/12/13 02:20:15;;;;;;;63.47;40.53;;;;;;;;;;5034589;28;20495;-63
2020/12/13 02:22:43;;;;;;;57.80;39.43;;;;;;;;;;5034264;28;20952;-63
2020/12/13 02:25:11;;;;;;;59.00;36.10;;;;;;;;;;5033119;28;20461;-64
2020/12/13 02:27:37;;;;;;;56.40;38.13;;;;;;;;;;5033613;28;20475;-63
2020/12/13 02:30:05;;;;;;;64.30;37.33;;;;;;;;;;5033637;28;20449;-63
2020/12/13 02:32:32;;;;;;;62.97;38.90;;;;;;;;;;5033979;28;20453;-64
2020/12/13 02:34:59;;;;;;;63.53;38.30;;;;;;;;;;5033700;28;20540;-63
2020/12/13 02:37:26;;;;;;;66.73;38.97;;;;;;;;;;5033677;28;20475;-63
2020/12/13 02:39:54;;;;;;;60.33;36.63;;;;;;;;;;5033937;28;20484;-65
2020/12/13 02:42:21;;;;;;;62.57;38.87;;;;;;;;;;5033707;28;20453;-65
2020/12/13 02:44:47;;;;;;;63.93;37.77;;;;;;;;;;5033548;28;20465;-63
2020/12/13 02:47:14;;;;;;;59.57;35.83;;;;;;;;;;5033629;28;20816;-63
2020/12/13 02:49:41;;;;;;;59.77;39.50;;;;;;;;;;5031767;28;20486;-63
2020/12/13 02:52:08;;;;;;;65.80;38.23;;;;;;;;;;5021788;28;20460;-63
2020/12/13 02:54:35;;;;;;;58.37;37.10;;;;;;;;;;5033088;28;20970;-62
2020/12/13 02:57:02;;;;;;;54.03;34.70;;;;;;;;;;5033719;28;20463;-63
2020/12/13 02:59:29;;;;;;;57.80;40.10;;;;;;;;;;5033227;28;20480;-63
2020/12/13 03:01:55;;;;;;;60.77;37.53;;;;;;;;;;5033259;28;20457;-65
2020/12/13 03:04:22;;;;;;;57.40;40.03;;;;;;;;;;5018764;28;20458;-63
2020/12/13 03:06:49;;;;;;;55.47;34.63;;;;;;;;;;5033095;28;20963;-63
2020/12/13 03:09:15;;;;;;;56.27;37.37;;;;;;;;;;5023094;28;20488;-63
2020/12/13 03:11:42;;;;;;;57.40;37.83;;;;;;;;;;5023993;28;20970;-63
2020/12/13 03:14:10;;;;;;;58.00;37.47;;;;;;;;;;5031948;28;20484;-63
2020/12/13 03:16:37;;;;;;;65.00;38.70;;;;;;;;;;5033057;28;20487;-63
2020/12/13 03:19:04;;;;;;;61.10;38.00;;;;;;;;;;5033070;28;20493;-63
2020/12/13 03:21:31;;;;;;;62.60;37.60;;;;;;;;;;5033029;28;20457;-63
2020/12/13 03:23:58;;;;;;;64.60;37.80;;;;;;;;;;5032294;28;20456;-63
2020/12/13 03:26:24;;;;;;;63.37;38.20;;;;;;;;;;5033125;28;20453;-63
2020/12/13 03:28:51;;;;;;;59.10;37.77;;;;;;;;;;5033070;28;20487;-63
2020/12/13 03:31:19;;;;;;;65.00;39.60;;;;;;;;;;5032970;28;20506;-63
2020/12/13 03:33:46;;;;;;;57.13;36.80;;;;;;;;;;5032867;28;20463;-63
2020/12/13 03:36:13;;;;;;;65.80;37.87;;;;;;;;;;5032033;28;20752;-63
2020/12/13 03:38:40;;;;;;;58.63;35.57;;;;;;;;;;5032098;28;20492;-63
2020/12/13 03:41:06;;;;;;;65.30;39.07;;;;;;;;;;5032364;28;20468;-63
2020/12/13 03:43:33;;;;;;;65.93;40.73;;;;;;;;;;5032476;28;20449;-63
2020/12/13 03:46:00;;;;;;;60.83;37.57;;;;;;;;;;5031773;28;20459;-63
2020/12/13 03:48:27;;;;;;;58.53;37.30;;;;;;;;;;5032654;28;20482;-63
2020/12/13 03:50:54;;;;;;;56.03;35.80;;;;;;;;;;5033040;28;20969;-62
2020/12/13 03:53:21;;;;;;;63.93;38.20;;;;;;;;;;5033373;28;20455;-62
2020/12/13 03:55:47;;;;;;;59.70;37.33;;;;;;;;;;5031918;28;20491;-64
2020/12/13 03:58:14;;;;;;;60.00;39.43;;;;;;;;;;5032057;28;20988;-63
2020/12/13 04:00:41;;;;;;;65.77;38.30;;;;;;;;;;5032217;28;20495;-63
2020/12/13 04:03:07;;;;;;;61.60;38.43;;;;;;;;;;5033266;28;20448;-64
2020/12/13 04:05:35;;;;;;;67.33;46.77;;;;;;;;;;5032323;28;20460;-63
2020/12/13 04:08:02;;;;;;;63.60;45.20;;;;;;;;;;5033970;28;20477;-64
2020/12/13 04:10:29;;;;;;;66.43;46.30;;;;;;;;;;5033909;28;20538;-63
2020/12/13 04:12:55;;;;;;;68.40;48.00;;;;;;;;;;5033782;28;20449;-63
2020/12/13 04:15:22;;;;;;;71.73;48.53;;;;;;;;;;5031684;28;20461;-64
2020/12/13 04:17:49;;;;;;;68.07;46.53;;;;;;;;;;5031988;28;20480;-64
2020/12/13 04:20:15;;;;;;;65.10;45.90;;;;;;;;;;5031840;28;20481;-64
2020/12/13 04:22:43;;;;;;;64.83;45.80;;;;;;;;;;5031366;28;20467;-64
2020/12/13 04:25:10;;;;;;;65.77;43.97;;;;;;;;;;5032116;28;20467;-64
2020/12/13 04:27:36;;;;;;;61.40;46.87;;;;;;;;;;5031780;28;20480;-63
2020/12/13 04:30:04;;;;;;;70.43;46.90;;;;;;;;;;5031758;28;20459;-64
2020/12/13 04:32:31;;;;;;;63.47;42.97;;;;;;;;;;5031060;28;20457;-64
2020/12/13 04:34:58;;;;;;;57.20;43.47;;;;;;;;;;5016116;28;20458;-64
2020/12/13 04:37:25;;;;;;;58.60;43.27;;;;;;;;;;5019865;28;20457;-65
2020/12/13 04:39:53;;;;;;;62.50;43.63;;;;;;;;;;5032229;28;20489;-64
2020/12/13 04:42:20;;;;;;;65.40;44.60;;;;;;;;;;5031281;28;20458;-64
2020/12/13 04:44:47;;;;;;;63.30;43.97;;;;;;;;;;5031878;28;20459;-64
2020/12/13 04:47:17;;;;;;;61.70;43.83;;;;;;;;;;5031639;28;20472;-64
2020/12/13 04:49:44;;;;;;;65.37;43.10;;;;;;;;;;5033230;28;20465;-64
2020/12/13 04:52:11;;;;;;;60.20;43.23;;;;;;;;;;5035555;28;20449;-64
2020/12/13 04:54:38;;;;;;;65.83;45.70;;;;;;;;;;5035913;28;20458;-63
2020/12/13 04:57:07;;;;;;;66.93;45.83;;;;;;;;;;5035913;28;20491;-64
2020/12/13 04:59:33;;;;;;;70.67;47.40;;;;;;;;;;5035827;28;20492;-63
2020/12/13 05:02:01;;;;;;;67.80;45.47;;;;;;;;;;5034595;28;20478;-64
2020/12/13 05:04:27;;;;;;;66.50;45.77;;;;;;;;;;5035606;28;20463;-64
2020/12/13 05:06:54;;;;;;;68.13;46.30;;;;;;;;;;5035824;28;20496;-64
2020/12/13 05:09:21;;;;;;;71.57;47.10;;;;;;;;;;5035750;28;20470;-64
2020/12/13 05:11:49;;;;;;;70.27;46.60;;;;;;;;;;5035737;28;20452;-63
2020/12/13 05:14:17;;;;;;;69.10;48.47;;;;;;;;;;5029818;28;20881;-63
2020/12/13 05:16:43;;;;;;;73.93;47.47;;;;;;;;;;5035748;28;20946;-64
2020/12/13 05:19:10;;;;;;;71.30;47.43;;;;;;;;;;5035551;28;20492;-63
2020/12/13 05:21:38;;;;;;;77.83;50.13;;;;;;;;;;5035263;28;20457;-66
2020/12/13 05:24:05;;;;;;;72.00;48.30;;;;;;;;;;5035219;28;20457;-64
2020/12/13 05:26:33;;;;;;;81.07;49.77;;;;;;;;;;5035492;28;20460;-63
2020/12/13 05:29:00;;;;;;;73.20;47.40;;;;;;;;;;5072235;22;20563;-64
2020/12/13 05:31:30;;;;;;;78.60;52.07;;;;;;;;;;5072370;28;20945;-65
2020/12/13 05:34:01;;;;;;;69.80;49.60;;;;;;;;;;5066731;28;20534;-65
2020/12/13 05:36:29;;;;;;;77.57;50.43;;;;;;;;;;5056953;28;20482;-66
2020/12/13 05:38:57;;;;;;;73.50;50.67;;;;;;;;;;5055155;28;20998;-66
2020/12/13 05:41:28;;;;;;;78.53;51.13;;;;;;;;;;5071720;28;20458;-65
2020/12/13 05:44:03;;;;;;;88.37;51.63;;;;;;;;;;5074476;28;20447;-65
2020/12/13 05:49:32;;;;;;;84.73;54.00;;;;;;;;;;5067438;28;20833;-64
2020/12/13 05:51:59;;;;;;;87.33;54.97;;;;;;;;;;5073916;28;20478;-65
2020/12/13 05:54:26;;;;;;;84.90;54.63;;;;;;;;;;5074099;28;20445;-65
2020/12/13 05:56:56;;;;;;;86.57;53.27;;;;;;;;;;5075035;28;20439;-64
2020/12/13 05:59:24;;;;;;;87.67;52.50;;;;;;;;;;5074961;28;20482;-65
2020/12/13 06:01:53;;;;;;;91.60;54.30;;;;;;;;;;5074795;28;20836;-65
2020/12/13 06:04:23;;;;;;;93.37;55.37;;;;;;;;;;5074003;28;20958;-65
2020/12/13 06:06:50;;;;;;;88.13;54.20;;;;;;;;;;5075032;28;20443;-65
2020/12/13 06:09:17;;;;;;;85.83;55.50;;;;;;;;;;5073816;28;20473;-65
2020/12/13 06:11:45;;;;;;;100.27;56.47;;;;;;;;;;5074395;28;20455;-65
2020/12/13 06:14:16;;;;;;;99.87;57.13;;;;;;;;;;5073207;28;21074;-65
2020/12/13 06:16:43;;;;;;;92.90;53.90;;;;;;;;;;5074008;28;20813;-65
2020/12/13 06:19:12;;;;;;;101.47;57.63;;;;;;;;;;5074735;28;20583;-64
2020/12/13 06:21:39;;;;;;;100.07;62.90;;;;;;;;;;5073974;28;20455;-65
2020/12/13 06:24:07;;;;;;;95.37;55.03;;;;;;;;;;5073428;28;20447;-65
2020/12/13 06:26:34;;;;;;;99.30;57.07;;;;;;;;;;5073992;28;20537;-64
2020/12/13 06:29:01;;;;;;;89.43;52.60;;;;;;;;;;5067516;28;20468;-64
2020/12/13 06:31:29;;;;;;;108.47;60.60;;;;;;;;;;5071636;28;20451;-64
2020/12/13 06:33:55;;;;;;;100.60;55.60;;;;;;;;;;5074096;28;20453;-64
2020/12/13 06:36:24;;;;;;;106.57;60.87;;;;;;;;;;5073714;28;20961;-64
2020/12/13 06:38:52;;;;;;;100.03;55.07;;;;;;;;;;5074126;28;20458;-65
2020/12/13 06:41:21;;;;;;;101.43;55.83;;;;;;;;;;5073708;28;20496;-65
2020/12/13 06:43:51;;;;;;;108.67;59.90;;;;;;;;;;5065694;28;20470;-65
2020/12/13 06:46:19;;;;;;;97.97;57.63;;;;;;;;;;5073926;28;20443;-67
2020/12/13 06:48:46;;;;;;;102.10;58.57;;;;;;;;;;5073149;28;20506;-68
2020/12/13 06:51:17;;;;;;;107.77;57.67;;;;;;;;;;5072618;28;21011;-68
2020/12/13 06:53:46;;;;;;;111.73;59.97;;;;;;;;;;5072934;28;20500;-67
2020/12/13 06:56:14;;;;;;;109.00;61.30;;;;;;;;;;5070969;28;20491;-67
2020/12/13 06:58:44;;;;;;;120.33;65.40;;;;;;;;;;5070603;28;20490;-67
2020/12/13 07:01:18;;;;;;;119.67;63.70;;;;;;;;;;5073113;28;20451;-67
2020/12/13 07:03:44;;;;;;;113.00;60.47;;;;;;;;;;5072857;28;20469;-68
2020/12/13 07:06:16;;;;;;;113.80;67.17;;;;;;;;;;5072824;28;20447;-67
2020/12/13 07:08:49;;;;;;;91.67;38.63;;;;;;;;;;5072830;28;20999;-67
2020/12/13 07:11:16;;;;;;;118.17;63.37;;;;;;;;;;5058896;28;20470;-67
2020/12/13 07:13:44;;;;;;;134.83;65.27;;;;;;;;;;5072313;28;20545;-68
2020/12/13 07:16:15;;;;;;;131.70;66.80;;;;;;;;;;5070362;28;20466;-68
2020/12/13 07:18:45;;;;;;;132.33;67.10;;;;;;;;;;5059153;28;20471;-68
2020/12/13 07:21:14;;;;;;;125.80;67.23;;;;;;;;;;5072368;28;20782;-68
2020/12/13 07:23:41;;;;;;;134.70;66.73;;;;;;;;;;5072337;28;20439;-68
2020/12/13 07:26:09;;;;;;;137.93;71.87;;;;;;;;;;5071898;28;20542;-68
2020/12/13 07:28:35;;;;;;;131.53;64.87;;;;;;;;;;5072611;28;20475;-67
2020/12/13 07:31:04;;;;;;;146.50;73.63;;;;;;;;;;5072315;28;20459;-68
2020/12/13 07:33:31;;;;;;;130.37;70.80;;;;;;;;;;5072427;28;20482;-68
2020/12/13 07:35:58;;;;;;;130.20;70.80;;;;;;;;;;5072330;28;20446;-67
2020/12/13 07:38:25;;;;;;;126.07;68.63;;;;;;;;;;5072161;28;20946;-68
2020/12/13 07:40:51;;;;;;;132.17;70.50;;;;;;;;;;5072030;28;20482;-67
2020/12/13 07:43:19;;;;;;;128.60;70.33;;;;;;;;;;5072495;28;20445;-68
2020/12/13 07:45:46;;;;;;;128.87;70.80;;;;;;;;;;5065612;28;20452;-68
2020/12/13 07:48:13;;;;;;;135.23;69.63;;;;;;;;;;5069597;28;20451;-67
2020/12/13 07:50:44;;;;;;;136.67;69.20;;;;;;;;;;5062187;28;20458;-68
2020/12/13 07:53:11;;;;;;;132.77;66.20;;;;;;;;;;5052552;28;20444;-68
2020/12/13 07:55:42;;;;;;;140.70;69.87;;;;;;;;;;5070832;28;20954;-68
2020/12/13 07:58:09;;;;;;;133.10;71.83;;;;;;;;;;5072258;28;20449;-68
2020/12/13 08:00:36;;;;;;;140.00;72.63;;;;;;;;;;5067106;28;20478;-68
2020/12/13 08:03:05;;;;;;;137.83;72.60;;;;;;;;;;5071288;28;20545;-68
2020/12/13 08:05:32;;;;;;;133.03;70.33;;;;;;;;;;5071653;28;20489;-67
2020/12/13 08:07:59;;;;;;;138.40;68.67;;;;;;;;;;5071565;28;20467;-68
2020/12/13 08:10:28;;;;;;;142.73;72.70;;;;;;;;;;5070701;28;20463;-68
2020/12/13 08:12:55;;;;;;;133.37;68.87;;;;;;;;;;5070453;28;20447;-68
2020/12/13 08:15:22;;;;;;;140.17;69.93;;;;;;;;;;5071173;28;20451;-68
2020/12/13 08:17:59;;;;;;;139.40;72.17;;;;;;;;;;5072368;28;20832;-67
2020/12/13 08:20:28;;;;;;;127.60;67.43;;;;;;;;;;5079774;28;20526;-68
2020/12/13 08:22:55;;;;;;;130.77;67.53;;;;;;;;;;5066226;28;20462;-68
2020/12/13 08:25:22;;;;;;;124.87;67.80;;;;;;;;;;5059404;28;20963;-68
2020/12/13 08:27:50;;;;;;;135.70;70.30;;;;;;;;;;5070767;28;20455;-68
2020/12/13 08:30:18;;;;;;;127.53;71.47;;;;;;;;;;5070911;28;20477;-67
2020/12/13 08:32:45;;;;;;;123.63;71.20;;;;;;;;;;5055620;28;20547;-67
2020/12/13 08:35:13;;;;;;;126.90;66.77;;;;;;;;;;5052098;28;20953;-67
2020/12/13 08:37:40;;;;;;;111.23;62.53;;;;;;;;;;5069553;28;20454;-67
2020/12/13 08:40:08;;;;;;;113.07;66.43;;;;;;;;;;5070748;28;20483;-67
2020/12/13 08:42:35;;;;;;;126.20;65.13;;;;;;;;;;5071149;28;20504;-67
2020/12/13 08:45:02;;;;;;;123.60;64.93;;;;;;;;;;5070219;28;20458;-67
2020/12/13 08:47:31;;;;;;;116.73;61.57;;;;;;;;;;5071288;28;20454;-68
2020/12/13 08:49:58;;;;;;;112.37;66.37;;;;;;;;;;5071103;28;20459;-65
2020/12/13 08:52:26;;;;;;;122.53;64.37;;;;;;;;;;5063766;28;20447;-69
2020/12/13 08:54:53;;;;;;;116.60;64.43;;;;;;;;;;5063212;28;20828;-69
2020/12/13 08:57:27;;;;;;;111.67;62.50;;;;;;;;;;5073728;28;20453;-69
2020/12/13 08:59:57;;;;;;;113.40;64.87;;;;;;;;;;5073498;28;20482;-69
2020/12/13 09:02:24;;;;;;;112.77;61.57;;;;;;;;;;5073270;28;20455;-69
2020/12/13 09:04:54;;;;;;;112.23;62.23;;;;;;;;;;5070721;28;20447;-68
2020/12/13 09:07:21;;;;;;;102.27;57.90;;;;;;;;;;5070670;28;20454;-68
2020/12/13 09:09:49;;;;;;;99.53;58.13;;;;;;;;;;5057588;28;20480;-68
2020/12/13 09:12:19;;;;;;;107.03;59.70;;;;;;;;;;5055813;28;20788;-69
2020/12/13 09:14:45;;;;;;;98.63;60.20;;;;;;;;;;5070793;28;20443;-68
2020/12/13 09:17:12;;;;;;;94.70;57.40;;;;;;;;;;5070747;28;20442;-68
2020/12/13 09:19:50;;;;;;;52.30;31.00;;;;;;;;;;5070284;28;20498;-70
2020/12/13 09:22:19;;;;;;;40.27;27.23;;;;;;;;;;5070917;28;20780;-67
2020/12/13 09:24:46;;;;;;;45.00;29.73;;;;;;;;;;5071085;28;20519;-66
2020/12/13 09:27:18;;;;;;;36.27;26.43;;;;;;;;;;5071191;28;20461;-66
2020/12/13 09:29:46;;;;;;;30.97;24.23;;;;;;;;;;5069530;28;20580;-67
2020/12/13 09:32:13;;;;;;;27.43;22.27;;;;;;;;;;5068031;28;20454;-67
2020/12/13 09:34:39;;;;;;;22.83;18.80;;;;;;;;;;5070038;28;20451;-67
2020/12/13 09:37:08;;;;;;;28.70;19.83;;;;;;;;;;5073909;28;20457;-67
2020/12/13 09:39:35;;;;;;;23.77;20.33;;;;;;;;;;5074558;28;20580;-67
2020/12/13 09:42:02;;;;;;;22.40;17.97;;;;;;;;;;5074478;28;20803;-67
2020/12/13 09:44:30;;;;;;;25.27;21.00;;;;;;;;;;5073297;28;20458;-67
2020/12/13 09:46:57;;;;;;;19.37;17.33;;;;;;;;;;5072685;28;20447;-67
2020/12/13 09:49:24;;;;;;;47.47;41.13;;;;;;;;;;5070775;28;21008;-66
2020/12/13 09:51:55;;;;;;;65.27;47.63;;;;;;;;;;5074233;28;20457;-67
2020/12/13 09:54:22;;;;;;;65.17;46.87;;;;;;;;;;5073745;28;20454;-67
2020/12/13 09:56:48;;;;;;;69.33;47.67;;;;;;;;;;5074446;28;20453;-67
2020/12/13 09:59:15;;;;;;;73.50;48.97;;;;;;;;;;5072335;28;20470;-67
2020/12/13 10:01:43;;;;;;;78.70;50.10;;;;;;;;;;5074062;28;20439;-67
2020/12/13 10:04:09;;;;;;;73.83;50.87;;;;;;;;;;5073469;28;20832;-67
2020/12/13 10:06:48;;;;;;;74.83;51.20;;;;;;;;;;5073267;28;20488;-67
2020/12/13 10:09:16;;;;;;;79.40;50.50;;;;;;;;;;5073963;28;20553;-67
2020/12/13 10:11:43;;;;;;;80.23;49.77;;;;;;;;;;5072519;28;20458;-67
2020/12/13 10:14:11;;;;;;;79.90;51.70;;;;;;;;;;5065486;28;20451;-67
2020/12/13 10:16:38;;;;;;;77.47;50.83;;;;;;;;;;5063420;28;20550;-67
2020/12/13 10:19:06;;;;;;;75.73;50.53;;;;;;;;;;5062186;28;20468;-68
2020/12/13 10:21:33;;;;;;;84.57;52.67;;;;;;;;;;5061096;28;20517;-68
2020/12/13 10:24:00;;;;;;;84.33;52.30;;;;;;;;;;5053331;28;20957;-67
2020/12/13 10:26:28;;;;;;;89.80;53.77;;;;;;;;;;5069614;28;20954;-67
2020/12/13 10:28:55;;;;;;;85.97;52.80;;;;;;;;;;5073183;28;20483;-68
2020/12/13 10:31:26;;;;;;;90.50;51.53;;;;;;;;;;5060186;28;20474;-67
2020/12/13 10:33:53;;;;;;;90.77;51.30;;;;;;;;;;5072359;28;20537;-67
2020/12/13 10:36:20;;;;;;;93.80;56.17;;;;;;;;;;5058271;28;20456;-67
2020/12/13 10:38:48;;;;;;;92.40;53.60;;;;;;;;;;5073320;28;20463;-67
2020/12/13 10:41:15;;;;;;;89.30;55.17;;;;;;;;;;5073109;28;20493;-67
2020/12/13 10:43:42;;;;;;;89.60;51.70;;;;;;;;;;5072248;28;20496;-67
2020/12/13 10:46:08;;;;;;;93.80;55.00;;;;;;;;;;5072325;28;20451;-67
2020/12/13 10:48:35;;;;;;;89.27;53.73;;;;;;;;;;5072697;28;20489;-68
2020/12/13 10:51:02;;;;;;;96.83;55.60;;;;;;;;;;5063297;28;20440;-68
2020/12/13 10:53:29;;;;;;;100.57;56.40;;;;;;;;;;5064927;28;20461;-68
2020/12/13 10:55:56;;;;;;;88.50;55.83;;;;;;;;;;5072580;28;20568;-67
2020/12/13 10:58:23;;;;;;;108.47;57.57;;;;;;;;;;5072900;28;20452;-66
2020/12/13 11:00:50;;;;;;;103.73;57.17;;;;;;;;;;5072371;28;20486;-66
2020/12/13 11:03:16;;;;;;;98.37;58.37;;;;;;;;;;5054880;28;20951;-67
2020/12/13 11:05:43;;;;;;;101.60;54.33;;;;;;;;;;5064147;28;20443;-68
2020/12/13 11:08:10;;;;;;;99.17;54.57;;;;;;;;;;5064234;28;20452;-67
2020/12/13 11:10:38;;;;;;;99.07;57.10;;;;;;;;;;5072199;28;20443;-69
2020/12/13 11:13:04;;;;;;;91.43;55.53;;;;;;;;;;5067835;28;20474;-70
2020/12/13 11:15:31;;;;;;;97.83;56.97;;;;;;;;;;5072321;28;20465;-70
2020/12/13 11:17:58;;;;;;;96.90;55.00;;;;;;;;;;5070285;28;20454;-70
2020/12/13 11:20:24;;;;;;;90.37;52.90;;;;;;;;;;5070771;28;20489;-70
2020/12/13 11:22:51;;;;;;;92.60;55.13;;;;;;;;;;5066187;28;20458;-70
2020/12/13 11:25:18;;;;;;;99.10;54.33;;;;;;;;;;5072175;28;20443;-70
2020/12/13 11:27:45;;;;;;;98.13;53.73;;;;;;;;;;5072427;28;20482;-69
2020/12/13 11:30:12;;;;;;;96.60;53.50;;;;;;;;;;5077299;22;20508;-66
2020/12/13 11:32:40;;;;;;;95.90;53.67;;;;;;;;;;5030338;28;20472;-66
2020/12/13 11:35:07;;;;;;;91.63;54.03;;;;;;;;;;5027557;28;20484;-66
2020/12/13 11:37:34;;;;;;;93.30;53.43;;;;;;;;;;5013549;28;20464;-63
2020/12/13 11:40:01;;;;;;;94.30;54.10;;;;;;;;;;5013335;28;20984;-63
2020/12/13 11:42:28;;;;;;;84.13;51.97;;;;;;;;;;5022213;28;20822;-64
2020/12/13 11:44:55;;;;;;;98.50;53.70;;;;;;;;;;5032555;28;20846;-63
2020/12/13 11:47:22;;;;;;;92.70;56.57;;;;;;;;;;5032740;28;20554;-64
2020/12/13 11:49:49;;;;;;;86.63;54.37;;;;;;;;;;5032345;28;20472;-65
2020/12/13 11:52:15;;;;;;;85.97;53.70;;;;;;;;;;5031135;28;20463;-64
2020/12/13 11:54:42;;;;;;;97.00;57.40;;;;;;;;;;5029322;28;20457;-66
2020/12/13 11:57:09;;;;;;;90.20;53.60;;;;;;;;;;5030215;28;20897;-65
2020/12/13 11:59:35;;;;;;;92.50;55.40;;;;;;;;;;5020846;28;20887;-66
2020/12/13 12:02:03;;;;;;;95.53;53.90;;;;;;;;;;5018245;28;20475;-64
2020/12/13 12:04:29;;;;;;;82.87;52.53;;;;;;;;;;5031915;28;21031;-64
2020/12/13 12:06:56;;;;;;;89.23;52.63;;;;;;;;;;5032531;28;20440;-65
2020/12/13 12:09:23;;;;;;;96.70;58.10;;;;;;;;;;5022672;28;20828;-64
2020/12/13 12:11:50;;;;;;;94.03;58.10;;;;;;;;;;5035295;28;20847;-64
2020/12/13 12:14:17;;;;;;;89.70;55.37;;;;;;;;;;5030771;28;20528;-64
2020/12/13 12:16:44;;;;;;;97.97;58.17;;;;;;;;;;5013760;28;20452;-64
2020/12/13 12:19:13;;;;;;;94.03;55.50;;;;;;;;;;5021432;28;20502;-64
2020/12/13 12:21:43;;;;;;;94.53;53.27;;;;;;;;;;5021237;28;20496;-64
2020/12/13 12:24:10;;;;;;;90.67;56.43;;;;;;;;;;5022667;28;20456;-64
2020/12/13 12:26:37;;;;;;;102.70;62.70;;;;;;;;;;5032100;28;20452;-64
2020/12/13 12:29:05;;;;;;;98.80;58.30;;;;;;;;;;5031759;28;20495;-64
2020/12/13 12:31:32;;;;;;;102.70;61.67;;;;;;;;;;5031072;28;21371;-64
2020/12/13 12:33:58;;;;;;;93.77;57.13;;;;;;;;;;5026307;28;20537;-64
2020/12/13 12:36:28;;;;;;;91.27;54.17;;;;;;;;;;5023859;28;20477;-64
2020/12/13 12:38:55;;;;;;;98.23;58.97;;;;;;;;;;5026573;28;20857;-65
2020/12/13 12:41:22;;;;;;;107.00;65.30;;;;;;;;;;5031585;28;20485;-64
2020/12/13 12:43:50;;;;;;;105.97;64.40;;;;;;;;;;5032380;28;21207;-64
2020/12/13 12:46:17;;;;;;;99.60;60.50;;;;;;;;;;5031402;28;20482;-64
2020/12/13 12:48:47;;;;;;;93.50;57.10;;;;;;;;;;5030856;28;20455;-66
2020/12/13 12:51:14;;;;;;;107.00;65.63;;;;;;;;;;5031429;28;20825;-64
2020/12/13 12:53:42;;;;;;;98.93;59.20;;;;;;;;;;5031527;28;20463;-64
2020/12/13 12:56:10;;;;;;;96.70;58.97;;;;;;;;;;5024237;28;20468;-65
2020/12/13 12:58:44;;;;;;;104.00;64.80;;;;;;;;;;5031762;28;20550;-64
2020/12/13 13:01:14;;;;;;;114.37;70.20;;;;;;;;;;5030994;28;20477;-63
2020/12/13 13:03:41;;;;;;;90.43;53.97;;;;;;;;;;5029447;28;20448;-63
2020/12/13 13:06:20;;;;;;;97.33;57.77;;;;;;;;;;5026687;28;20510;-63
2020/12/13 13:08:56;;;;;;;89.47;58.07;;;;;;;;;;5031175;28;20556;-63
2020/12/13 13:11:28;;;;;;;91.00;55.70;;;;;;;;;;5034078;28;20487;-63
2020/12/13 13:13:55;;;;;;;98.10;55.97;;;;;;;;;;5035648;28;20457;-63
2020/12/13 13:16:22;;;;;;;98.30;57.60;;;;;;;;;;5034264;28;20456;-63
2020/12/13 13:18:48;;;;;;;104.77;63.23;;;;;;;;;;5035208;28;20449;-63
2020/12/13 13:21:20;;;;;;;97.80;61.50;;;;;;;;;;5022875;28;20499;-63
2020/12/13 13:23:48;;;;;;;90.73;58.37;;;;;;;;;;5026478;28;20958;-64
2020/12/13 13:26:20;;;;;;;98.63;58.90;;;;;;;;;;5034836;28;20464;-63
2020/12/13 13:28:47;;;;;;;111.00;67.30;;;;;;;;;;5025062;28;20459;-62
2020/12/13 13:31:14;;;;;;;109.10;64.00;;;;;;;;;;5035634;28;20452;-63
2020/12/13 13:33:41;;;;;;;102.43;58.20;;;;;;;;;;5019515;28;20970;-63
2020/12/13 13:36:10;;;;;;;107.07;64.80;;;;;;;;;;5028662;28;20947;-63
2020/12/13 13:38:36;;;;;;;98.07;59.27;;;;;;;;;;5036566;28;20977;-63
2020/12/13 13:41:06;;;;;;;103.67;59.00;;;;;;;;;;5044252;28;20587;-63
2020/12/13 13:43:38;;;;;;;104.30;61.17;;;;;;;;;;5045591;28;20545;-63
2020/12/13 13:51:28;;;;;;;113.33;64.93;;;;;;;;;;5035085;28;20540;-65
2020/12/13 13:53:55;;;;;;;106.13;61.03;;;;;;;;;;5045020;28;20449;-63
2020/12/13 13:56:28;;;;;;;105.93;62.87;;;;;;;;;;5043619;28;20453;-63
2020/12/13 13:58:56;;;;;;;104.77;60.03;;;;;;;;;;5034950;28;20453;-63
2020/12/13 14:01:22;;;;;;;116.27;63.40;;;;;;;;;;5034558;28;20495;-63
2020/12/13 14:03:49;;;;;;;101.00;60.27;;;;;;;;;;5029884;28;20458;-63
2020/12/13 14:06:22;;;;;;;104.23;59.40;;;;;;;;;;5019944;28;20463;-63
2020/12/13 14:08:48;;;;;;;106.47;62.33;;;;;;;;;;5034722;28;20453;-63
2020/12/13 14:11:21;;;;;;;107.57;59.33;;;;;;;;;;5034355;28;20567;-63
2020/12/13 14:13:48;;;;;;;100.87;59.70;;;;;;;;;;5030758;28;20831;-63
2020/12/13 14:16:15;;;;;;;112.97;62.43;;;;;;;;;;5033524;28;20456;-63
2020/12/13 14:18:42;;;;;;;118.13;63.10;;;;;;;;;;5026028;28;20453;-62
2020/12/13 14:21:09;;;;;;;117.47;62.93;;;;;;;;;;5015344;28;20516;-63
2020/12/13 14:23:36;;;;;;;118.57;65.10;;;;;;;;;;5030751;28;20453;-63